createdAt,value
2023-04-07T00:01:52.016Z,1.10
2023-04-07T00:05:34.063Z,1.00
2023-04-07T00:09:16.352Z,1.23
2023-04-07T00:12:58.572Z,1.20
2023-04-07T00:16:40.809Z,0.98
2023-04-07T00:20:23.261Z,1.30
2023-04-07T00:24:05.466Z,1.20
2023-04-07T00:27:47.564Z,1.00
2023-04-07T00:31:29.757Z,1.20
2023-04-07T00:35:11.774Z,1.00
2023-04-07T00:38:53.809Z,0.95
2023-04-07T00:42:35.793Z,1.33
2023-04-07T00:46:20.856Z,1.20
2023-04-07T00:50:05.147Z,1.30
2023-04-07T00:53:47.488Z,1.10
2023-04-07T00:57:29.700Z,1.33
2023-04-07T01:01:19.357Z,1.17
2023-04-07T01:05:13.299Z,1.13
2023-04-07T01:09:08.399Z,1.75
2023-04-07T01:13:00.764Z,1.35
2023-04-07T01:16:53.814Z,1.15
2023-04-07T01:20:38.829Z,1.00
2023-04-07T01:24:56.809Z,0.98
2023-04-07T01:32:29.971Z,1.10
2023-04-07T01:36:13.174Z,0.90
2023-04-07T01:39:55.495Z,1.20
2023-04-07T01:43:39.306Z,1.10
2023-04-07T01:47:21.508Z,0.90
2023-04-07T01:51:05.869Z,0.90
2023-04-07T01:54:48.456Z,0.90
2023-04-07T01:58:30.485Z,0.90
2023-04-07T02:02:12.647Z,0.88
2023-04-07T02:05:59.369Z,0.95
2023-04-07T02:09:43.592Z,1.20
2023-04-07T02:13:25.810Z,0.90
2023-04-07T02:17:07.870Z,0.95
2023-04-07T02:20:52.319Z,1.10
2023-04-07T02:24:34.362Z,1.00
2023-04-07T02:28:16.583Z,1.20
2023-04-07T02:31:58.758Z,1.10
2023-04-07T02:35:40.905Z,1.10
2023-04-07T02:39:22.966Z,0.90
2023-04-07T02:43:05.388Z,1.20
2023-04-07T02:46:47.424Z,1.20
2023-04-07T02:50:29.476Z,1.00
2023-04-07T02:54:11.802Z,1.02
2023-04-07T02:57:53.740Z,1.10
2023-04-07T03:01:36.550Z,1.00
2023-04-07T03:05:18.673Z,1.20
2023-04-07T03:09:01.257Z,1.60
2023-04-07T03:12:44.104Z,1.33
2023-04-07T03:16:26.472Z,1.40
2023-04-07T03:20:09.111Z,1.08
2023-04-07T03:23:51.266Z,1.30
2023-04-07T03:27:33.311Z,1.50
2023-04-07T03:31:15.705Z,1.15
2023-04-07T03:34:57.783Z,1.58
2023-04-07T03:38:39.815Z,1.40
2023-04-07T03:42:21.834Z,1.30
2023-04-07T03:46:06.013Z,1.50
2023-04-07T03:49:48.035Z,1.20
2023-04-07T03:53:30.078Z,1.23
2023-04-07T03:57:12.199Z,1.30
2023-04-07T04:00:54.284Z,1.10
2023-04-07T04:04:36.596Z,0.93
2023-04-07T04:08:18.705Z,1.83
2023-04-07T04:12:01.335Z,1.17
2023-04-07T04:15:43.988Z,1.25
2023-04-07T04:19:26.427Z,1.40
2023-04-07T04:23:08.473Z,1.20
2023-04-07T04:26:50.566Z,1.10
2023-04-07T04:30:32.613Z,1.17
2023-04-07T04:34:14.556Z,1.23
2023-04-07T04:37:56.750Z,1.13
2023-04-07T04:41:38.908Z,1.20
2023-04-07T04:45:21.083Z,1.00
2023-04-07T04:49:03.140Z,1.10
2023-04-07T04:52:45.200Z,1.10
2023-04-07T04:56:27.203Z,1.17
2023-04-07T05:00:10.129Z,1.17
2023-04-07T05:03:52.459Z,1.20
2023-04-07T05:07:34.607Z,1.25
2023-04-07T05:11:17.217Z,1.13
2023-04-07T05:14:59.286Z,1.33
2023-04-07T05:18:41.898Z,1.00
2023-04-07T05:22:23.992Z,1.02
2023-04-07T05:26:06.381Z,1.20
2023-04-07T05:29:48.384Z,1.20
2023-04-07T05:33:30.602Z,1.30
2023-04-07T05:37:12.643Z,1.30
2023-04-07T05:40:54.653Z,1.10
2023-04-07T05:44:36.850Z,1.30
2023-04-07T05:48:18.861Z,1.50
2023-04-07T05:52:01.021Z,1.27
2023-04-07T05:55:43.794Z,1.10
2023-04-07T05:59:25.790Z,1.25
2023-04-07T06:03:07.886Z,1.40
2023-04-07T06:06:50.084Z,1.50
2023-04-07T06:10:32.127Z,1.30
2023-04-07T06:14:14.610Z,1.10
2023-04-07T06:17:56.615Z,1.23
2023-04-07T06:21:40.056Z,1.67
2023-04-07T06:25:22.046Z,1.40
2023-04-07T06:29:04.108Z,1.23
2023-04-07T06:32:46.103Z,1.42
2023-04-07T06:36:29.245Z,1.23
2023-04-07T06:40:11.446Z,0.90
2023-04-07T06:43:54.158Z,0.98
2023-04-07T06:47:36.372Z,1.10
2023-04-07T06:51:18.502Z,0.90
2023-04-07T06:55:00.535Z,0.60
2023-04-07T06:58:42.569Z,0.88
2023-04-07T07:02:24.723Z,1.00
2023-04-07T07:06:07.037Z,0.85
2023-04-07T07:09:49.005Z,0.80
2023-04-07T07:13:31.122Z,0.77
2023-04-07T07:17:13.341Z,0.80
2023-04-07T07:20:55.473Z,0.77
2023-04-07T07:24:37.502Z,0.60
2023-04-07T07:28:21.756Z,0.95
2023-04-07T07:32:03.802Z,0.85
2023-04-07T07:35:46.615Z,1.00
2023-04-07T07:39:30.008Z,0.80
2023-04-07T07:43:12.530Z,0.60
2023-04-07T07:46:54.583Z,0.55
2023-04-07T07:50:36.962Z,0.50
2023-04-07T07:54:19.057Z,0.45
2023-04-07T07:58:01.577Z,0.75
2023-04-07T08:01:43.620Z,0.80
2023-04-07T08:05:25.845Z,0.60
2023-04-07T08:09:07.932Z,0.55
2023-04-07T08:12:49.938Z,0.50
2023-04-07T08:16:31.966Z,0.60
2023-04-07T08:20:14.088Z,0.80
2023-04-07T08:23:56.539Z,0.60
2023-04-07T08:27:38.647Z,0.50
2023-04-07T08:31:20.938Z,0.32
2023-04-07T08:35:03.359Z,0.70
2023-04-07T08:38:45.468Z,0.50
2023-04-07T08:42:32.846Z,0.70
2023-04-07T08:46:15.863Z,0.73
2023-04-07T08:50:01.525Z,0.50
2023-04-07T08:53:52.906Z,0.68
2023-04-07T08:57:35.318Z,0.40
2023-04-07T09:01:18.337Z,0.70
2023-04-07T09:05:01.705Z,0.75
2023-04-07T09:08:43.737Z,0.70
2023-04-07T09:12:27.347Z,0.90
2023-04-07T09:16:09.390Z,0.50
2023-04-07T09:19:52.796Z,0.73
2023-04-07T09:23:37.535Z,0.63
2023-04-07T09:27:19.860Z,0.50
2023-04-07T09:31:01.841Z,0.68
2023-04-07T09:34:43.889Z,0.68
2023-04-07T09:38:34.172Z,0.55
2023-04-07T09:42:16.273Z,0.70
2023-04-07T09:46:11.727Z,0.60
2023-04-07T09:49:56.333Z,0.60
2023-04-07T09:53:43.569Z,1.20
2023-04-07T09:57:25.932Z,0.70
2023-04-07T10:01:09.750Z,0.60
2023-04-07T10:04:51.954Z,0.68
2023-04-07T10:08:36.530Z,0.60
2023-04-07T10:12:19.144Z,0.50
2023-04-07T10:16:07.287Z,0.50
2023-04-07T10:19:50.723Z,0.50
2023-04-07T10:23:52.269Z,0.60
2023-04-07T10:27:39.038Z,0.70
2023-04-07T10:31:22.808Z,0.50
2023-04-07T10:35:05.331Z,0.50
2023-04-07T10:39:09.092Z,0.70
2023-04-07T10:42:52.043Z,0.60
2023-04-07T10:46:46.800Z,0.50
2023-04-07T10:50:29.536Z,0.50
2023-04-07T10:54:22.809Z,0.68
2023-04-07T10:58:24.580Z,0.70
2023-04-07T11:02:16.636Z,0.70
2023-04-07T11:06:06.146Z,0.50
2023-04-07T11:09:48.225Z,0.60
2023-04-07T11:13:51.337Z,0.60
2023-04-07T11:17:33.662Z,0.50
2023-04-07T11:21:20.005Z,0.70
2023-04-07T11:25:02.031Z,0.60
2023-04-07T11:28:54.154Z,0.50
2023-04-07T11:32:36.212Z,0.60
2023-04-07T11:36:44.692Z,0.50
2023-04-07T11:40:37.757Z,0.60
2023-04-07T11:44:20.206Z,0.60
2023-04-07T11:48:02.276Z,0.40
2023-04-07T11:51:45.451Z,0.40
2023-04-07T11:55:27.520Z,0.52
2023-04-07T11:59:09.714Z,0.50
2023-04-07T12:02:51.987Z,0.40
2023-04-07T12:06:38.501Z,0.40
2023-04-07T12:10:27.956Z,0.52
2023-04-07T12:14:09.950Z,0.50
2023-04-07T12:17:51.946Z,0.38
2023-04-07T12:21:33.977Z,0.20
2023-04-07T12:25:15.970Z,0.45
2023-04-07T12:29:05.255Z,0.40
2023-04-07T12:32:47.758Z,0.40
2023-04-07T12:36:30.038Z,0.30
2023-04-07T12:40:12.402Z,0.50
2023-04-07T12:43:54.521Z,0.40
2023-04-07T12:47:36.587Z,0.50
2023-04-07T12:51:18.826Z,0.30
2023-04-07T12:55:00.828Z,0.45
2023-04-07T12:58:43.113Z,0.30
2023-04-07T13:02:25.868Z,0.30
2023-04-07T13:06:07.966Z,0.40
2023-04-07T13:09:50.040Z,0.40
2023-04-07T13:13:32.381Z,0.22
2023-04-07T13:17:14.644Z,0.30
2023-04-07T13:21:26.410Z,0.40
2023-04-07T13:25:00.245Z,0.40
2023-04-07T13:28:46.053Z,0.17
2023-04-07T13:32:28.179Z,0.33
2023-04-07T13:36:10.536Z,0.30
2023-04-07T13:39:53.072Z,0.25
2023-04-07T13:43:35.072Z,0.25
2023-04-07T13:47:21.821Z,0.40
2023-04-07T13:51:04.007Z,0.30
2023-04-07T13:54:45.975Z,0.30
2023-04-07T13:58:28.604Z,0.20
2023-04-07T14:02:12.016Z,0.30
2023-04-07T14:05:54.621Z,0.40
2023-04-07T14:09:37.771Z,0.38
2023-04-07T14:13:19.904Z,0.32
2023-04-07T14:17:02.222Z,0.28
2023-04-07T14:20:44.321Z,0.22
2023-04-07T14:24:26.348Z,0.30
2023-04-07T14:28:08.403Z,0.25
2023-04-07T14:31:51.670Z,0.40
2023-04-07T14:35:37.130Z,0.43
2023-04-07T14:39:19.854Z,0.47
2023-04-07T14:43:07.301Z,0.30
2023-04-07T14:46:49.635Z,0.30
2023-04-07T14:50:34.673Z,0.40
2023-04-07T14:54:16.691Z,0.32
2023-04-07T14:57:58.704Z,0.30
2023-04-07T15:01:40.880Z,0.30
2023-04-07T15:05:23.219Z,0.40
2023-04-07T15:09:05.263Z,0.30
2023-04-07T15:12:50.863Z,0.30
2023-04-07T15:16:33.184Z,0.30
2023-04-07T15:20:15.451Z,0.20
2023-04-07T15:23:57.444Z,0.20
2023-04-07T15:27:39.519Z,0.38
2023-04-07T15:31:23.561Z,0.40
2023-04-07T15:35:06.342Z,0.38
2023-04-07T15:38:48.490Z,0.20
2023-04-07T15:42:31.992Z,0.30
2023-04-07T15:46:14.036Z,0.30
2023-04-07T15:49:56.198Z,0.50
2023-04-07T15:53:38.237Z,0.30
2023-04-07T15:57:22.275Z,0.20
2023-04-07T16:01:05.265Z,0.32
2023-04-07T16:04:48.278Z,0.28
2023-04-07T16:08:30.311Z,0.30
2023-04-07T16:12:12.482Z,0.40
2023-04-07T16:15:58.377Z,0.32
2023-04-07T16:19:40.501Z,0.40
2023-04-07T16:23:22.474Z,0.22
2023-04-07T16:27:04.653Z,0.40
2023-04-07T16:30:46.684Z,0.35
2023-04-07T16:34:28.672Z,0.22
2023-04-07T16:38:11.584Z,0.22
2023-04-07T16:41:53.858Z,0.25
2023-04-07T16:45:35.901Z,0.20
2023-04-07T16:49:18.190Z,0.22
2023-04-07T16:53:00.231Z,0.20
2023-04-07T16:56:42.312Z,0.40
2023-04-07T17:00:24.343Z,0.40
2023-04-07T17:04:06.483Z,0.30
2023-04-07T17:07:48.582Z,0.20
2023-04-07T17:11:30.765Z,0.30
2023-04-07T17:15:12.825Z,0.40
2023-04-07T17:18:54.903Z,0.20
2023-04-07T17:22:36.848Z,0.30
2023-04-07T17:26:18.914Z,0.30
2023-04-07T17:30:01.013Z,0.40
2023-04-07T17:33:43.211Z,0.40
2023-04-07T17:37:25.370Z,0.20
2023-04-07T17:41:07.763Z,0.28
2023-04-07T17:44:52.830Z,0.20
2023-04-07T17:48:34.858Z,0.30
2023-04-07T17:52:16.946Z,0.47
2023-04-07T17:55:59.009Z,0.40
2023-04-07T17:59:41.067Z,0.20
2023-04-07T18:03:23.310Z,0.63
2023-04-07T18:07:05.591Z,0.47
2023-04-07T18:10:47.670Z,0.30
2023-04-07T18:14:29.699Z,0.40
2023-04-07T18:18:11.771Z,0.50
2023-04-07T18:21:54.562Z,0.75
2023-04-07T18:25:36.770Z,0.80
2023-04-07T18:29:18.863Z,1.45
2023-04-07T18:33:00.951Z,1.00
2023-04-07T18:36:43.186Z,0.63
2023-04-07T18:40:25.593Z,0.80
2023-04-07T18:44:07.627Z,0.70
2023-04-07T18:47:49.773Z,0.80
2023-04-07T18:51:31.899Z,0.40
2023-04-07T18:55:14.123Z,0.38
2023-04-07T18:58:56.382Z,0.30
2023-04-07T19:02:44.382Z,0.40
2023-04-07T19:06:26.762Z,0.60
2023-04-07T19:10:09.609Z,0.32
2023-04-07T19:13:53.409Z,0.40
2023-04-07T19:17:37.513Z,0.40
2023-04-07T19:21:20.371Z,0.55
2023-04-07T19:25:02.416Z,0.50
2023-04-07T19:28:44.598Z,0.60
2023-04-07T19:32:27.418Z,0.73
2023-04-07T19:36:09.509Z,0.40
2023-04-07T19:40:01.673Z,0.60
2023-04-07T19:43:45.491Z,0.60
2023-04-07T19:47:27.672Z,0.60
2023-04-07T19:51:09.727Z,0.85
2023-04-07T19:54:51.805Z,2.05
2023-04-07T19:58:34.537Z,1.88
2023-04-07T20:02:16.654Z,2.00
2023-04-07T20:05:59.735Z,2.00
2023-04-07T20:09:41.760Z,1.70
2023-04-07T20:13:24.601Z,1.65
2023-04-07T20:17:06.675Z,1.55
2023-04-07T20:20:48.701Z,1.60
2023-04-07T20:24:31.318Z,1.77
2023-04-07T20:28:13.336Z,1.35
2023-04-07T20:31:55.468Z,1.38
2023-04-07T20:35:37.696Z,1.55
2023-04-07T20:39:19.858Z,1.17
2023-04-07T20:43:05.847Z,0.95
2023-04-07T20:46:48.020Z,1.30
2023-04-07T20:50:30.073Z,1.05
2023-04-07T20:54:12.366Z,1.40
2023-04-07T20:57:54.806Z,1.45
2023-04-07T21:01:36.850Z,1.45
2023-04-07T21:05:18.914Z,1.92
2023-04-07T21:09:01.554Z,2.13
2023-04-07T21:12:43.545Z,2.33
2023-04-07T21:16:25.652Z,2.42
2023-04-07T21:20:08.306Z,2.33
2023-04-07T21:23:50.511Z,2.28
2023-04-07T21:27:33.097Z,2.40
2023-04-07T21:31:24.913Z,2.53
2023-04-07T21:35:07.489Z,2.65
2023-04-07T21:38:52.255Z,2.92
2023-04-07T21:42:34.269Z,2.60
2023-04-07T21:46:17.009Z,2.42
2023-04-07T21:49:59.834Z,2.35
2023-04-07T21:53:41.868Z,2.30
2023-04-07T21:57:24.068Z,2.70
2023-04-07T22:01:06.154Z,2.47
2023-04-07T22:04:48.600Z,2.40
2023-04-07T22:08:30.974Z,2.30
2023-04-07T22:12:12.947Z,2.42
2023-04-07T22:15:55.937Z,2.20
2023-04-07T22:19:37.960Z,1.75
2023-04-07T22:23:20.048Z,1.73
2023-04-07T22:27:02.484Z,1.65
2023-04-07T22:30:44.649Z,1.90
2023-04-07T22:34:26.609Z,1.55
2023-04-07T22:38:08.859Z,1.70
2023-04-07T22:41:50.841Z,1.63
2023-04-07T22:45:33.040Z,1.70
2023-04-07T22:49:15.095Z,1.50
2023-04-07T22:52:57.103Z,1.58
2023-04-07T22:56:39.078Z,1.80
2023-04-07T23:00:21.517Z,1.80
2023-04-07T23:04:03.568Z,2.00
2023-04-07T23:07:45.807Z,2.17
2023-04-07T23:11:27.796Z,1.50
2023-04-07T23:15:10.455Z,1.80
2023-04-07T23:18:52.468Z,1.50
2023-04-07T23:22:34.486Z,1.60
2023-04-07T23:26:16.725Z,1.80
2023-04-07T23:29:59.178Z,1.65
2023-04-07T23:33:41.165Z,1.58
2023-04-07T23:37:23.237Z,1.85
2023-04-07T23:41:05.247Z,1.65
2023-04-07T23:44:47.376Z,1.60
2023-04-07T23:48:30.577Z,1.55
2023-04-07T23:52:12.629Z,1.80
2023-04-07T23:55:54.622Z,1.80
2023-04-07T23:59:36.681Z,1.55
